Time;durP1;ratioP1;P1;durP2;ratioP2;P2;SDS_P1;SDS_P2;PMS_P1;PMS_P2;Temp;Humidity;BMP_temperature;BMP_pressure;BME280_temperature;BME280_humidity;BME280_pressure;Samples;Min_cycle;Max_cycle;Signal;HPM_P1;HPM_P2
2022/06/25 00:01:24;;;;;;;;;1.25;1.00;;;;;21.96;49.29;100256.75;5037413;28;45662;-82
2022/06/25 00:03:51;;;;;;;;;2.50;2.00;;;;;21.95;49.82;100252.44;5040304;28;45840;-79
2022/06/25 00:06:18;;;;;;;;;2.25;1.75;;;;;21.88;49.65;100244.31;5030996;28;45808;-84
2022/06/25 00:08:44;;;;;;;;;1.00;1.00;;;;;21.89;49.41;100237.97;5037638;28;46457;-84
2022/06/25 00:12:31;;;;;;;;;2.25;1.25;;;;;21.91;49.69;100240.47;5036979;28;47150;-85
2022/06/25 00:13:57;;;;;;;;;2.50;1.50;;;;;21.87;49.78;100228.50;5032309;28;45911;-85
2022/06/25 00:16:22;;;;;;;;;2.00;2.00;;;;;21.83;49.84;100219.25;5039789;28;45736;-84
2022/06/25 00:18:48;;;;;;;;;2.00;2.00;;;;;21.85;50.07;100227.88;5038222;28;46122;-84
2022/06/25 00:21:13;;;;;;;;;2.50;2.00;;;;;21.91;50.48;100237.78;5039288;28;45631;-85
2022/06/25 00:23:38;;;;;;;;;2.50;2.00;;;;;21.83;50.66;100233.41;5035810;28;45655;-83
2022/06/25 00:26:04;;;;;;;;;1.25;1.00;;;;;21.87;50.38;100239.16;5038312;28;46620;-78
2022/06/25 00:28:29;;;;;;;;;3.00;2.00;;;;;21.87;50.95;100242.66;5036676;28;45847;-81
2022/06/25 00:30:54;;;;;;;;;1.25;1.00;;;;;21.84;51.08;100239.56;5039226;28;45551;-83
2022/06/25 00:33:20;;;;;;;;;1.00;1.00;;;;;21.72;51.89;100232.06;5034136;28;45708;-83
2022/06/25 00:35:46;;;;;;;;;2.00;2.00;;;;;21.82;51.90;100244.25;5038799;28;46344;-85
2022/06/25 00:38:11;;;;;;;;;1.00;1.00;;;;;21.73;51.86;100227.56;5040164;28;46948;-80
2022/06/25 00:40:37;;;;;;;;;2.00;2.00;;;;;21.66;52.21;100222.16;5035019;28;45556;-84
2022/06/25 00:43:02;;;;;;;;;2.75;1.00;;;;;21.67;51.99;100239.81;5039672;28;45580;-85
2022/06/25 00:45:27;;;;;;;;;1.50;1.50;;;;;21.67;52.23;100231.81;5039723;28;46144;-83
2022/06/25 00:47:53;;;;;;;;;3.00;2.00;;;;;21.67;51.91;100247.81;5038409;28;46596;-86
2022/06/25 00:50:18;;;;;;;;;2.00;1.25;;;;;21.61;52.40;100245.06;5021694;28;45797;-85
2022/06/25 00:52:49;;;;;;;;;1.25;1.25;;;;;21.52;52.59;100239.06;5038983;28;45451;-86
2022/06/25 00:55:19;;;;;;;;;3.75;3.00;;;;;21.62;52.67;100252.06;5038819;28;46679;-83
2022/06/25 00:57:49;;;;;;;;;1.75;1.75;;;;;21.60;52.57;100248.75;5038713;28;47228;-83
2022/06/25 01:00:15;;;;;;;;;3.50;3.00;;;;;21.57;52.80;100254.47;5035679;28;45870;-84
2022/06/25 01:02:42;;;;;;;;;2.75;2.00;;;;;21.54;52.60;100250.34;5035804;28;46832;-85
2022/06/25 01:05:09;;;;;;;;;5.00;2.00;;;;;21.56;52.63;100252.81;5035509;28;45919;-84
2022/06/25 01:07:36;;;;;;;;;2.00;2.00;;;;;21.51;52.41;100249.88;5028494;28;46076;-82
2022/06/25 01:10:04;;;;;;;;;3.25;3.00;;;;;21.57;52.74;100257.97;5036705;28;45734;-83
2022/06/25 01:12:29;;;;;;;;;0.00;0.00;;;;;21.53;52.69;100245.22;5032399;28;45653;-83
2022/06/25 01:15:12;;;;;;;;;3.75;2.50;;;;;21.57;52.46;100247.31;5028394;28;46455;-84
2022/06/25 01:17:46;;;;;;;;;2.00;2.00;;;;;21.58;52.91;100251.63;5032937;28;46225;-84
2022/06/25 01:20:13;;;;;;;;;3.25;1.25;;;;;21.55;52.83;100252.00;5015236;28;45764;-85
2022/06/25 01:22:39;;;;;;;;;2.50;2.25;;;;;21.50;52.77;100242.91;5033372;28;45646;-88
2022/06/25 01:25:07;;;;;;;;;1.50;1.25;;;;;21.42;52.76;100229.72;5032155;28;45715;-84
2022/06/25 01:27:33;;;;;;;;;4.00;3.25;;;;;21.43;52.56;100242.81;5010116;28;47170;-84
2022/06/25 01:29:59;;;;;;;;;3.75;2.25;;;;;21.47;52.62;100244.13;5024336;28;46242;-85
2022/06/25 01:32:25;;;;;;;;;3.00;2.00;;;;;21.41;52.75;100239.53;5012680;28;45730;-82
2022/06/25 01:34:50;;;;;;;;;2.00;2.00;;;;;21.40;52.57;100237.06;5040019;28;45563;-83
2022/06/25 01:37:15;;;;;;;;;1.50;1.50;;;;;21.42;52.68;100246.53;5040713;28;45737;-84
2022/06/25 01:39:41;;;;;;;;;3.25;1.50;;;;;21.45;52.95;100256.81;5041190;28;45675;-84
2022/06/25 01:42:58;;;;;;;;;1.75;1.00;;;;;21.40;53.13;100253.88;5042550;28;45786;-83
2022/06/25 01:44:51;;;;;;;;;2.00;1.25;;;;;21.27;52.67;100233.22;5035121;28;46335;-82
2022/06/25 01:47:17;;;;;;;;;2.25;2.00;;;;;21.34;52.83;100243.97;5037666;28;46462;-79
2022/06/25 01:49:42;;;;;;;;;3.00;2.00;;;;;21.39;53.16;100256.72;5037320;28;45839;-81
2022/06/25 01:52:08;;;;;;;;;2.00;2.00;;;;;21.32;52.83;100246.81;5028873;28;45894;-83
2022/06/25 01:54:33;;;;;;;;;2.00;2.00;;;;;21.35;53.36;100262.44;5015197;28;46586;-83
2022/06/25 01:57:00;;;;;;;;;3.25;2.00;;;;;21.34;53.36;100262.63;5036014;28;46129;-84
2022/06/25 01:59:25;;;;;;;;;2.00;2.00;;;;;21.33;52.92;100264.44;5017975;28;45939;-81
2022/06/25 02:01:51;;;;;;;;;2.00;2.00;;;;;21.32;53.36;100257.47;5030322;28;47265;-85
2022/06/25 02:04:16;;;;;;;;;2.00;2.00;;;;;21.26;53.20;100255.56;5016704;28;47437;-82
2022/06/25 02:06:42;;;;;;;;;1.75;1.50;;;;;21.24;53.72;100256.75;5033626;28;45814;-84
2022/06/25 02:09:07;;;;;;;;;1.25;1.00;;;;;21.20;53.61;100255.50;5035606;28;46000;-81
2022/06/25 02:11:32;;;;;;;;;1.00;1.00;;;;;21.27;53.81;100275.84;5026243;28;45884;-81
2022/06/25 02:13:58;;;;;;;;;0.00;0.00;;;;;21.14;53.85;100259.72;5035473;28;45566;-81
2022/06/25 02:16:23;;;;;;;;;2.75;1.00;;;;;21.18;54.37;100270.81;5035287;28;45638;-81
2022/06/25 02:18:49;;;;;;;;;1.75;0.75;;;;;21.15;54.49;100268.53;5009615;28;45667;-82
2022/06/25 02:21:14;;;;;;;;;1.00;1.00;;;;;21.09;54.93;100278.06;5033621;28;45846;-84
2022/06/25 02:23:40;;;;;;;;;1.00;1.00;;;;;21.00;55.13;100268.50;5034642;28;45634;-84
2022/06/25 02:26:05;;;;;;;;;2.00;1.25;;;;;20.99;55.11;100266.88;5034792;28;45721;-84
2022/06/25 02:28:30;;;;;;;;;0.75;0.75;;;;;20.86;55.24;100253.38;5035471;28;45508;-83
2022/06/25 02:30:57;;;;;;;;;0.50;0.50;;;;;20.92;55.17;100255.28;5038660;28;46131;-85
2022/06/25 02:33:22;;;;;;;;;0.75;0.50;;;;;20.87;55.28;100247.03;5037214;28;45751;-84
2022/06/25 02:35:47;;;;;;;;;1.50;1.25;;;;;20.81;55.57;100234.44;5035516;28;46245;-83
2022/06/25 02:38:13;;;;;;;;;2.00;1.00;;;;;20.87;55.68;100239.88;5032297;28;45912;-82
2022/06/25 02:40:38;;;;;;;;;2.75;1.50;;;;;20.90;55.82;100262.63;5033709;28;45775;-84
2022/06/25 02:43:05;;;;;;;;;1.00;1.00;;;;;20.82;55.85;100257.41;5034280;28;45696;-84
2022/06/25 02:45:31;;;;;;;;;2.25;1.50;;;;;20.83;56.14;100259.91;5033702;28;45940;-83
2022/06/25 02:47:56;;;;;;;;;1.75;1.00;;;;;20.76;56.36;100261.63;5014554;28;45837;-84
2022/06/25 02:50:25;;;;;;;;;1.25;0.50;;;;;20.79;56.78;100277.22;5034223;28;46008;-83
2022/06/25 02:52:50;;;;;;;;;0.75;0.75;;;;;20.72;57.39;100286.16;5033914;28;45989;-84
2022/06/25 02:55:16;;;;;;;;;0.50;0.25;;;;;20.62;57.64;100280.28;5032183;28;45698;-84
2022/06/25 03:00:25;;;;;;;;;1.75;1.00;;;;;20.50;58.28;100286.03;5029629;28;45733;-84
2022/06/25 03:02:51;;;;;;;;;2.00;1.25;;;;;20.47;58.11;100290.88;5029111;28;46196;-83
2022/06/25 03:05:17;;;;;;;;;2.00;1.00;;;;;20.38;58.18;100290.13;5033482;28;45635;-83
2022/06/25 03:07:43;;;;;;;;;1.75;1.00;;;;;20.33;58.50;100281.03;5027863;28;46330;-82
2022/06/25 03:10:09;;;;;;;;;1.75;1.00;;;;;20.31;58.24;100286.53;5041681;28;45857;-83
2022/06/25 03:12:35;;;;;;;;;1.00;1.00;;;;;20.28;58.54;100281.53;5028318;28;45756;-83
2022/06/25 03:15:00;;;;;;;;;1.00;1.00;;;;;20.26;58.23;100290.69;5024735;28;46359;-83
2022/06/25 03:17:27;;;;;;;;;0.75;0.00;;;;;20.25;58.15;100295.19;5033340;28;46469;-82
2022/06/25 03:19:54;;;;;;;;;0.00;0.00;;;;;20.14;58.55;100282.31;5033113;28;45653;-83
2022/06/25 03:22:20;;;;;;;;;0.00;0.00;;;;;20.09;58.48;100277.53;5032014;28;45874;-84
2022/06/25 03:24:45;;;;;;;;;0.00;0.00;;;;;20.10;58.52;100279.19;5015552;28;47335;-84
2022/06/25 03:27:11;;;;;;;;;0.00;0.00;;;;;20.09;58.53;100276.69;5031086;28;45710;-83
2022/06/25 03:29:36;;;;;;;;;0.00;0.00;;;;;19.95;58.61;100251.72;5034150;28;45733;-83
2022/06/25 03:32:02;;;;;;;;;0.25;0.00;;;;;19.99;58.20;100266.31;5032958;28;46817;-84
2022/06/25 03:34:27;;;;;;;;;0.00;0.00;;;;;19.90;58.07;100262.06;5033595;28;45768;-82
2022/06/25 03:36:53;;;;;;;;;0.00;0.00;;;;;20.05;58.43;100291.38;5032489;28;46205;-84
2022/06/25 03:39:18;;;;;;;;;0.00;0.00;;;;;20.04;57.79;100287.88;5033664;28;45949;-84
2022/06/25 03:41:44;;;;;;;;;0.00;0.00;;;;;19.97;58.27;100281.59;5031209;28;45833;-84
2022/06/25 03:44:10;;;;;;;;;0.00;0.00;;;;;20.00;58.44;100293.72;5035358;28;46297;-83
2022/06/25 03:46:38;;;;;;;;;0.00;0.00;;;;;20.03;58.57;100306.66;5013123;28;45812;-84
2022/06/25 03:49:04;;;;;;;;;0.00;0.00;;;;;19.93;58.73;100290.94;5033805;28;45646;-83
2022/06/25 03:51:30;;;;;;;;;0.00;0.00;;;;;20.00;58.46;100305.19;5033560;28;46699;-81
2022/06/25 03:53:56;;;;;;;;;0.00;0.00;;;;;19.97;58.56;100300.22;5034430;28;46207;-83
2022/06/25 03:56:22;;;;;;;;;0.00;0.00;;;;;20.01;58.92;100292.72;5032853;28;46367;-81
2022/06/25 03:58:49;;;;;;;;;0.00;0.00;;;;;20.00;58.93;100293.72;5032212;28;46032;-84
2022/06/25 04:01:15;;;;;;;;;1.00;0.00;;;;;20.03;58.79;100298.69;5029825;28;45804;-83
2022/06/25 04:03:41;;;;;;;;;0.00;0.00;;;;;20.02;59.01;100305.88;5011958;28;47372;-81
2022/06/25 04:06:07;;;;;;;;;0.00;0.00;;;;;19.91;59.07;100297.47;5031333;28;46096;-82
2022/06/25 04:08:32;;;;;;;;;0.00;0.00;;;;;19.95;59.10;100291.59;5014560;28;45623;-82
2022/06/25 04:10:58;;;;;;;;;0.00;0.00;;;;;19.98;59.29;100301.88;5032473;28;45781;-81
2022/06/25 04:13:23;;;;;;;;;0.00;0.00;;;;;20.06;59.13;100312.47;5031710;28;45806;-82
2022/06/25 04:15:49;;;;;;;;;0.00;0.00;;;;;20.06;59.09;100304.50;5015294;28;45914;-83
2022/06/25 04:18:15;;;;;;;;;0.25;0.25;;;;;20.13;59.27;100307.28;5032098;28;45641;-81
2022/06/25 04:20:41;;;;;;;;;0.25;0.25;;;;;20.13;58.89;100306.44;5033065;28;45755;-83
2022/06/25 04:23:07;;;;;;;;;0.00;0.00;;;;;20.13;59.00;100303.78;5033803;28;46069;-81
2022/06/25 04:25:32;;;;;;;;;0.00;0.00;;;;;20.17;59.52;100311.22;5013111;28;45883;-80
2022/06/25 04:30:42;;;;;;;;;0.00;0.00;;;;;20.17;59.67;100307.75;5030879;28;45981;-82
2022/06/25 04:33:07;;;;;;;;;0.25;0.25;;;;;20.19;59.40;100316.38;5032431;28;46350;-83
2022/06/25 04:35:33;;;;;;;;;1.00;0.00;;;;;20.17;59.67;100315.72;5031703;28;45855;-84
2022/06/25 04:37:58;;;;;;;;;0.75;0.75;;;;;20.25;59.39;100324.44;5032839;28;45554;-84
2022/06/25 04:40:24;;;;;;;;;0.00;0.00;;;;;20.25;59.82;100326.28;5032412;28;46770;-85
2022/06/25 04:42:49;;;;;;;;;0.75;0.75;;;;;20.23;59.54;100323.00;5032620;28;45845;-85
2022/06/25 04:45:14;;;;;;;;;1.00;1.00;;;;;20.18;59.69;100307.56;5032583;28;45747;-86
2022/06/25 04:47:40;;;;;;;;;0.00;0.00;;;;;20.27;59.51;100318.97;5030986;28;45691;-84
2022/06/25 04:50:06;;;;;;;;;0.50;0.00;;;;;20.28;59.36;100329.44;5031290;28;45674;-83
2022/06/25 04:52:32;;;;;;;;;1.00;0.75;;;;;20.21;59.40;100319.66;5029814;28;45850;-82
2022/06/25 04:54:58;;;;;;;;;1.00;1.00;;;;;20.26;59.26;100328.78;5031759;28;45895;-85
2022/06/25 04:57:23;;;;;;;;;0.50;0.50;;;;;20.17;59.71;100307.75;5032822;28;45932;-85
2022/06/25 04:59:48;;;;;;;;;0.00;0.00;;;;;20.29;59.64;100338.25;5031393;28;46587;-85
2022/06/25 05:02:14;;;;;;;;;0.25;0.25;;;;;20.26;59.37;100335.94;5026315;28;47136;-81
2022/06/25 05:04:39;;;;;;;;;0.00;0.00;;;;;20.20;59.49;100326.00;5028492;28;45837;-85
2022/06/25 05:07:05;;;;;;;;;1.00;1.00;;;;;20.19;59.38;100330.47;5028959;28;46230;-84
2022/06/25 05:09:30;;;;;;;;;0.00;0.00;;;;;20.29;59.50;100347.06;5027741;28;46774;-82
2022/06/25 05:11:56;;;;;;;;;0.00;0.00;;;;;20.26;59.39;100341.25;5029351;28;45809;-82
2022/06/25 05:14:21;;;;;;;;;0.75;0.00;;;;;20.30;59.51;100354.00;5029928;28;45951;-85
2022/06/25 05:16:47;;;;;;;;;0.50;0.50;;;;;20.31;59.58;100362.81;5027432;28;45760;-84
2022/06/25 05:19:13;;;;;;;;;1.25;0.50;;;;;20.30;59.48;100356.69;5032027;28;45694;-85
2022/06/25 05:21:39;;;;;;;;;0.75;0.75;;;;;20.31;59.32;100366.34;5031867;28;46660;-82
2022/06/25 05:24:05;;;;;;;;;0.75;0.25;;;;;20.35;59.27;100369.50;5031949;28;45714;-82
2022/06/25 05:26:31;;;;;;;;;0.00;0.00;;;;;20.34;59.16;100351.88;5030735;28;46038;-86
2022/06/25 05:28:56;;;;;;;;;0.00;0.00;;;;;20.41;59.10;100363.44;5010196;28;46445;-85
2022/06/25 05:31:22;;;;;;;;;0.00;0.00;;;;;20.41;58.36;100372.25;5029882;28;46268;-85
2022/06/25 05:33:49;;;;;;;;;0.75;0.75;;;;;20.42;58.73;100371.25;5031665;28;45888;-84
2022/06/25 05:36:15;;;;;;;;;0.75;0.75;;;;;20.39;58.72;100368.97;5031447;28;45546;-85
2022/06/25 05:38:40;;;;;;;;;0.25;0.25;;;;;20.36;58.75;100363.16;5030482;28;45542;-85
2022/06/25 05:41:08;;;;;;;;;0.25;0.25;;;;;20.34;58.83;100359.84;5031733;28;46156;-84
2022/06/25 05:43:37;;;;;;;;;2.00;1.00;;;;;20.35;58.70;100364.19;5032309;28;46068;-85
2022/06/25 05:46:03;;;;;;;;;0.75;0.75;;;;;20.37;58.07;100362.97;5032546;28;45892;-83
2022/06/25 05:48:29;;;;;;;;;2.00;1.00;;;;;20.43;57.85;100370.25;5032175;28;46480;-80
2022/06/25 05:50:55;;;;;;;;;0.50;0.50;;;;;20.36;57.67;100357.81;5031160;28;46803;-80
2022/06/25 05:53:21;;;;;;;;;1.75;1.00;;;;;20.39;57.66;100354.81;5030610;28;45623;-81
2022/06/25 05:55:46;;;;;;;;;1.00;0.75;;;;;20.45;57.38;100354.94;5031832;28;45682;-80
2022/06/25 05:58:12;;;;;;;;;0.50;0.50;;;;;20.50;57.58;100349.91;5013554;28;47349;-80
2022/06/25 06:00:38;;;;;;;;;0.75;0.75;;;;;20.48;57.19;100348.41;5031779;28;45753;-82
2022/06/25 06:03:04;;;;;;;;;1.75;0.75;;;;;20.59;57.05;100365.81;5018139;28;45772;-81
2022/06/25 06:05:29;;;;;;;;;0.25;0.25;;;;;20.55;57.35;100354.69;5031702;28;45720;-80
2022/06/25 06:07:55;;;;;;;;;0.75;0.75;;;;;20.64;57.15;100369.56;5031246;28;46834;-80
2022/06/25 06:10:20;;;;;;;;;1.00;1.00;;;;;20.64;56.71;100369.56;5022369;28;45830;-83
2022/06/25 06:12:46;;;;;;;;;0.25;0.25;;;;;20.63;56.91;100362.59;5026946;28;45775;-81
2022/06/25 06:15:11;;;;;;;;;0.50;0.00;;;;;20.69;56.72;100377.03;5027903;28;46230;-80
2022/06/25 06:17:38;;;;;;;;;0.25;0.00;;;;;20.69;56.61;100377.84;5030302;28;46733;-81
2022/06/25 06:20:04;;;;;;;;;0.75;0.75;;;;;20.69;56.78;100371.69;5030445;28;45954;-80
2022/06/25 06:22:30;;;;;;;;;1.00;1.00;;;;;20.68;56.62;100372.69;5013999;28;45741;-81
2022/06/25 06:24:55;;;;;;;;;0.50;0.50;;;;;20.71;56.87;100378.50;5034150;28;45627;-82
2022/06/25 06:27:21;;;;;;;;;0.00;0.00;;;;;20.73;56.67;100368.50;5033668;28;45801;-80
2022/06/25 06:29:47;;;;;;;;;2.00;1.00;;;;;20.73;56.50;100357.03;5033976;28;45940;-81
2022/06/25 06:32:12;;;;;;;;;1.00;1.00;;;;;20.85;56.38;100368.88;5031468;28;47061;-81
2022/06/25 06:34:41;;;;;;;;;1.00;1.00;;;;;20.91;56.18;100378.81;5027470;28;45865;-81
2022/06/25 06:37:07;;;;;;;;;0.75;0.75;;;;;20.82;56.45;100364.75;5032151;28;45793;-81
2022/06/25 06:39:32;;;;;;;;;0.75;0.75;;;;;20.88;56.17;100373.88;5030643;28;45916;-79
2022/06/25 06:41:57;;;;;;;;;0.00;0.00;;;;;20.87;55.94;100370.38;5030430;28;46078;-81
2022/06/25 06:44:23;;;;;;;;;0.25;0.00;;;;;21.00;55.69;100390.25;5030404;28;45627;-80
2022/06/25 06:46:48;;;;;;;;;1.00;1.00;;;;;20.95;56.25;100358.78;5029323;28;45758;-79
2022/06/25 06:49:13;;;;;;;;;1.00;1.00;;;;;21.00;55.53;100367.06;5029427;28;46127;-80
2022/06/25 06:51:39;;;;;;;;;1.75;0.75;;;;;20.96;55.56;100376.44;5029639;28;46043;-81
2022/06/25 06:54:04;;;;;;;;;1.00;0.75;;;;;21.04;55.68;100380.88;5031945;28;45823;-83
2022/06/25 06:56:30;;;;;;;;;1.00;1.00;;;;;21.03;55.21;100384.53;5030647;28;46597;-81
2022/06/25 06:58:55;;;;;;;;;0.25;0.25;;;;;21.03;55.19;100389.88;5033543;28;45590;-81
2022/06/25 07:01:21;;;;;;;;;1.75;1.00;;;;;20.98;54.87;100392.25;5030251;28;45840;-81
2022/06/25 07:03:46;;;;;;;;;2.50;2.50;;;;;21.01;54.83;100391.88;5033270;28;45582;-86
2022/06/25 07:06:12;;;;;;;;;0.75;0.75;;;;;20.98;54.12;100387.75;5031222;28;46110;-79
2022/06/25 07:08:37;;;;;;;;;2.25;1.75;;;;;20.93;54.35;100376.81;5036593;28;45800;-79
2022/06/25 07:11:28;;;;;;;;;0.75;0.75;;;;;20.93;54.40;100374.97;5028493;28;46062;-79
2022/06/25 07:13:48;;;;;;;;;1.00;1.00;;;;;21.00;53.76;100395.56;5032431;28;46994;-80
2022/06/25 07:16:14;;;;;;;;;0.00;0.00;;;;;20.94;54.07;100392.59;5033041;28;46722;-79
2022/06/25 07:18:39;;;;;;;;;0.25;0.25;;;;;20.83;53.74;100379.75;5033291;28;45720;-77
2022/06/25 07:21:05;;;;;;;;;1.00;0.75;;;;;20.91;53.72;100398.28;5032353;28;46670;-77
2022/06/25 07:23:33;;;;;;;;;0.00;0.00;;;;;20.90;53.48;100396.63;5032804;28;45809;-78
2022/06/25 07:25:58;;;;;;;;;0.00;0.00;;;;;20.80;53.48;100385.41;5031088;28;45646;-79
2022/06/25 07:28:24;;;;;;;;;0.25;0.25;;;;;20.90;53.13;100396.63;5030101;28;46327;-78
2022/06/25 07:30:49;;;;;;;;;2.00;0.75;;;;;20.83;53.15;100390.41;5032879;28;45927;-79
2022/06/25 07:33:14;;;;;;;;;0.75;0.75;;;;;20.91;53.32;100392.13;5032521;28;45635;-80
2022/06/25 07:35:40;;;;;;;;;1.75;0.75;;;;;21.00;53.63;100403.56;5031888;28;45684;-79
2022/06/25 07:38:05;;;;;;;;;1.00;1.00;;;;;21.02;53.74;100409.50;5031643;28;45776;-78
2022/06/25 07:40:31;;;;;;;;;0.25;0.00;;;;;21.05;52.77;100414.50;5027489;28;46834;-81
2022/06/25 07:42:56;;;;;;;;;0.00;0.00;;;;;21.04;52.81;100404.84;4992315;28;46204;-79
2022/06/25 07:45:22;;;;;;;;;0.00;0.00;;;;;21.10;52.83;100406.78;5013027;28;46903;-77
2022/06/25 07:47:47;;;;;;;;;1.00;1.00;;;;;21.11;52.39;100397.75;5007638;28;46849;-80
2022/06/25 07:52:57;;;;;;;;;0.50;0.00;;;;;21.11;51.94;100403.09;5023821;28;47159;-82
2022/06/25 07:55:22;;;;;;;;;0.75;0.75;;;;;21.16;51.27;100409.56;5037484;28;46184;-85
2022/06/25 07:57:48;;;;;;;;;0.00;0.00;;;;;21.10;51.32;100422.78;5035753;28;46451;-83
2022/06/25 08:00:15;;;;;;;;;0.00;0.00;;;;;21.04;51.37;100426.16;5014671;28;45784;-83
2022/06/25 08:02:40;;;;;;;;;0.00;0.00;;;;;21.02;51.56;100425.50;5031015;28;46283;-83
2022/06/25 08:05:06;;;;;;;;;1.00;1.00;;;;;20.91;51.83;100419.59;5038182;28;46023;-86
2022/06/25 08:07:31;;;;;;;;;2.25;2.00;;;;;20.83;52.00;100418.84;5039607;28;45852;-84
2022/06/25 08:09:57;;;;;;;;;1.00;1.00;;;;;20.76;52.06;100412.59;5024903;28;46579;-83
2022/06/25 08:12:22;;;;;;;;;2.00;1.75;;;;;20.71;52.48;100409.63;5009625;28;45735;-87
2022/06/25 08:14:48;;;;;;;;;1.75;1.00;;;;;20.66;52.85;100409.34;5028891;28;46022;-88
2022/06/25 08:17:13;;;;;;;;;1.00;1.00;;;;;20.66;52.60;100423.50;5004724;28;46892;-90
2022/06/25 08:19:39;;;;;;;;;1.00;0.50;;;;;20.56;52.84;100409.59;5027690;28;46827;-85
2022/06/25 08:22:04;;;;;;;;;1.00;0.75;;;;;20.62;52.88;100432.00;5022978;28;45808;-83
2022/06/25 08:24:29;;;;;;;;;1.00;1.00;;;;;20.62;53.08;100434.69;5025444;28;45745;-91
2022/06/25 08:26:55;;;;;;;;;1.25;1.00;;;;;20.56;53.52;100425.56;5021711;28;45847;-88
2022/06/25 08:29:20;;;;;;;;;0.50;0.50;;;;;20.68;53.88;100428.63;5022390;28;46884;-83
2022/06/25 08:31:46;;;;;;;;;1.25;1.25;;;;;20.75;53.31;100438.38;5027615;28;47083;-85
2022/06/25 08:34:11;;;;;;;;;1.00;0.00;;;;;20.83;52.84;100440.16;5030301;28;47307;-84
2022/06/25 08:36:36;;;;;;;;;1.75;1.00;;;;;20.79;52.42;100430.84;5023807;28;46194;-90
2022/06/25 08:39:02;;;;;;;;;1.00;1.00;;;;;20.82;51.84;100449.16;4987857;28;47292;-86
2022/06/25 08:41:28;;;;;;;;;1.75;1.00;;;;;20.80;51.05;100453.81;5030545;28;46365;-87
2022/06/25 08:43:54;;;;;;;;;1.50;1.00;;;;;20.65;50.82;100434.31;5031098;28;46213;-89
2022/06/25 08:46:19;;;;;;;;;0.75;0.50;;;;;20.75;51.17;100450.88;5029898;28;47104;-93
2022/06/25 08:48:49;;;;;;;;;1.00;0.00;;;;;20.62;51.15;100434.69;5005085;28;46294;-86
2022/06/25 08:51:18;;;;;;;;;1.00;0.00;;;;;20.70;51.06;100451.41;5031044;28;45726;-88
2022/06/25 08:53:44;;;;;;;;;0.25;0.25;;;;;20.69;51.37;100439.09;5025680;28;46519;-87
2022/06/25 08:56:09;;;;;;;;;1.00;1.00;;;;;20.78;51.08;100450.53;5026428;28;45673;-80
2022/06/25 08:58:35;;;;;;;;;2.25;1.50;;;;;20.76;50.73;100453.34;5008705;28;45826;-80
2022/06/25 09:01:01;;;;;;;;;1.50;1.50;;;;;20.87;50.87;100470.75;5020306;28;46921;-83
2022/06/25 09:03:26;;;;;;;;;2.75;1.75;;;;;20.84;50.71;100457.78;5024320;28;45861;-82
2022/06/25 09:05:52;;;;;;;;;1.50;0.00;;;;;20.87;50.84;100463.59;5028894;28;47161;-86
2022/06/25 09:08:17;;;;;;;;;2.50;1.50;;;;;20.85;51.03;100462.94;5024328;28;45829;-85
2022/06/25 09:10:52;;;;;;;;;2.75;1.00;;;;;20.70;51.40;100437.25;5021192;28;45992;-88
2022/06/25 09:13:24;;;;;;;;;2.00;2.00;;;;;20.81;51.86;100436.84;5044150;28;47498;-82
2022/06/25 09:15:49;;;;;;;;;1.50;1.50;;;;;20.86;51.75;100445.13;5034458;28;46315;-82
2022/06/25 09:18:17;;;;;;;;;1.75;1.75;;;;;20.84;52.21;100445.28;5025504;28;47016;-82
2022/06/25 09:21:01;;;;;;;;;2.00;2.00;;;;;20.92;52.43;100445.22;5013998;28;46598;-84
2022/06/25 09:23:28;;;;;;;;;2.00;2.00;;;;;20.86;52.79;100418.47;5030875;28;46904;-81
2022/06/25 09:26:10;;;;;;;;;1.75;1.75;;;;;20.96;52.90;100432.38;5029479;28;46315;-83
2022/06/25 09:28:41;;;;;;;;;3.50;2.25;;;;;21.01;52.70;100424.66;5029859;28;45705;-83
2022/06/25 09:31:07;;;;;;;;;1.00;1.00;;;;;21.05;52.14;100430.47;5029671;28;45595;-84
2022/06/25 09:33:33;;;;;;;;;2.75;2.50;;;;;21.06;52.29;100411.63;5016441;28;46483;-85
2022/06/25 09:35:59;;;;;;;;;3.00;1.00;;;;;21.18;51.77;100436.03;5031951;28;46211;-83
2022/06/25 09:38:25;;;;;;;;;3.00;3.00;;;;;21.13;52.02;100433.06;5028985;28;45628;-83
2022/06/25 09:40:56;;;;;;;;;2.00;0.75;;;;;21.20;51.88;100432.19;5031381;28;45677;-84
2022/06/25 09:43:23;;;;;;;;;2.25;1.25;;;;;21.19;51.99;100433.19;5033265;28;45845;-86
2022/06/25 09:45:52;;;;;;;;;2.00;2.00;;;;;21.17;51.74;100429.88;5038220;28;46521;-81
2022/06/25 09:48:25;;;;;;;;;18.25;16.25;;;;;21.23;52.25;100444.31;5035890;28;45613;-84
2022/06/25 09:51:13;;;;;;;;;2.00;2.00;;;;;21.25;52.05;100437.78;5033292;28;45976;-85
2022/06/25 09:53:52;;;;;;;;;2.50;2.50;;;;;21.27;51.48;100440.25;5026427;28;45713;-87
2022/06/25 09:56:21;;;;;;;;;3.00;1.50;;;;;21.29;51.08;100448.91;5031895;28;46675;-85
2022/06/25 09:58:48;;;;;;;;;1.00;1.00;;;;;21.25;50.60;100451.13;5019837;28;46211;-85
2022/06/25 10:01:18;;;;;;;;;2.00;1.50;;;;;21.14;50.72;100438.25;5023681;28;46830;-84
2022/06/25 10:03:45;;;;;;;;;0.50;0.00;;;;;21.21;50.34;100443.69;4996194;28;49673;-83
2022/06/25 10:06:21;;;;;;;;;1.50;1.00;;;;;21.12;50.37;100431.38;5010282;28;47109;-86
2022/06/25 10:08:48;;;;;;;;;2.75;1.75;;;;;21.11;50.52;100435.88;5031903;28;45708;-88
2022/06/25 10:11:13;;;;;;;;;1.00;1.00;;;;;21.06;50.68;100421.44;5022096;28;47257;-86
2022/06/25 10:13:41;;;;;;;;;1.00;1.00;;;;;21.10;50.25;100428.94;5011654;28;47264;-82
2022/06/25 10:16:07;;;;;;;;;1.75;1.00;;;;;21.11;49.89;100437.72;5019213;28;47337;-85
2022/06/25 10:18:35;;;;;;;;;2.00;1.75;;;;;20.95;50.15;100418.22;5019389;28;46745;-88
2022/06/25 10:21:01;;;;;;;;;2.00;2.00;;;;;21.00;50.26;100422.22;5021310;28;47257;-83
2022/06/25 10:23:26;;;;;;;;;0.75;0.75;;;;;20.97;50.48;100418.06;5018043;28;46596;-83
2022/06/25 10:25:51;;;;;;;;;1.25;1.25;;;;;21.09;50.35;100423.78;5018952;28;46630;-83
2022/06/25 10:28:25;;;;;;;;;2.00;1.25;;;;;21.15;50.23;100431.06;5014241;28;47131;-87
2022/06/25 10:30:56;;;;;;;;;1.50;1.25;;;;;21.23;50.54;100431.81;5020660;28;47038;-86
2022/06/25 10:33:29;;;;;;;;;2.00;1.00;;;;;21.30;50.39;100430.09;5019915;28;46267;-86
2022/06/25 10:35:58;;;;;;;;;2.00;2.00;;;;;21.36;50.31;100425.84;4997854;28;48061;-86
2022/06/25 10:38:25;;;;;;;;;1.75;1.50;;;;;21.48;50.65;100429.72;5000052;28;46587;-82
2022/06/25 10:43:51;;;;;;;;;1.00;1.00;;;;;21.55;50.44;100416.47;5022835;28;45949;-85
2022/06/25 10:46:36;;;;;;;;;2.00;2.00;;;;;21.63;50.19;100419.06;5022548;28;46273;-88
2022/06/25 10:49:31;;;;;;;;;2.00;2.00;;;;;21.69;50.29;100429.81;5009415;28;45792;-86
2022/06/25 10:51:56;;;;;;;;;2.00;2.00;;;;;21.74;50.24;100419.41;4928568;28;46726;-81
2022/06/25 10:54:22;;;;;;;;;2.00;1.00;;;;;21.84;50.30;100423.63;4915379;28;47334;-85
2022/06/25 10:56:50;;;;;;;;;1.00;1.00;;;;;21.91;50.20;100427.22;4931602;28;45779;-85
2022/06/25 10:59:34;;;;;;;;;3.00;3.00;;;;;21.98;50.26;100426.28;4917539;28;46426;-78
2022/06/25 11:02:10;;;;;;;;;2.00;2.00;;;;;22.03;50.41;100420.38;4909272;28;46036;-80
2022/06/25 11:04:37;;;;;;;;;3.75;3.25;;;;;22.10;50.25;100418.63;4912761;28;47284;-80
2022/06/25 11:07:13;;;;;;;;;1.75;1.75;;;;;22.17;50.00;100432.88;4911639;28;47202;-81
2022/06/25 11:09:40;;;;;;;;;3.00;2.00;;;;;22.23;49.95;100428.63;4909179;28;47116;-79
2022/06/25 11:12:07;;;;;;;;;2.00;2.00;;;;;22.25;49.78;100421.25;4912467;28;46248;-83
2022/06/25 11:14:33;;;;;;;;;2.00;2.00;;;;;22.23;50.03;100412.63;4918878;28;47601;-85
2022/06/25 11:17:08;;;;;;;;;2.00;1.00;;;;;22.35;49.57;100427.13;4924232;28;46306;-86
2022/06/25 11:19:33;;;;;;;;;1.00;1.00;;;;;22.41;49.55;100419.16;4936518;28;45678;-84
2022/06/25 11:22:02;;;;;;;;;1.50;1.50;;;;;22.46;48.98;100434.59;4949911;28;45983;-85
2022/06/25 11:24:29;;;;;;;;;2.00;1.00;;;;;22.47;49.24;100423.75;4924276;28;48340;-86
2022/06/25 11:29:46;;;;;;;;;4.00;3.00;;;;;22.50;49.22;100439.41;5030534;28;47168;-85
2022/06/25 11:32:18;;;;;;;;;1.25;1.25;;;;;22.47;49.28;100429.09;5036812;28;45793;-85
2022/06/25 11:34:44;;;;;;;;;2.50;2.50;;;;;22.50;49.26;100430.56;5027899;28;48542;-84
2022/06/25 11:37:11;;;;;;;;;2.00;2.00;;;;;22.53;48.78;100432.84;5011835;28;48165;-87